createdAt,value
2019-02-19T00:02:51.970Z,77.60
2019-02-19T00:07:54.658Z,77.91
2019-02-19T00:12:58.749Z,76.41
2019-02-19T00:18:00.769Z,76.84
2019-02-19T00:23:02.913Z,77.61
2019-02-19T00:28:06.473Z,78.85
2019-02-19T00:33:08.931Z,79.21
2019-02-19T00:38:10.952Z,79.66
2019-02-19T00:43:12.932Z,79.75
2019-02-19T00:48:14.935Z,79.81
2019-02-19T00:53:16.970Z,80.05
2019-02-19T00:58:19.239Z,80.38
2019-02-19T01:03:23.384Z,80.33
2019-02-19T01:08:25.478Z,79.56
2019-02-19T01:13:27.753Z,80.57
2019-02-19T01:18:31.785Z,80.12
2019-02-19T01:23:34.268Z,80.38
2019-02-19T01:28:36.397Z,80.38
2019-02-19T01:33:38.670Z,79.80
2019-02-19T01:38:43.462Z,79.65
2019-02-19T01:43:45.468Z,79.88
2019-02-19T01:48:50.593Z,79.95
2019-02-19T01:53:52.929Z,79.79
2019-02-19T01:58:55.217Z,79.35
2019-02-19T02:03:57.378Z,79.33
2019-02-19T02:08:59.388Z,79.31
2019-02-19T02:14:01.622Z,79.12
2019-02-19T02:19:03.641Z,79.57
2019-02-19T02:24:05.954Z,79.61
2019-02-19T02:29:08.165Z,79.68
2019-02-19T02:34:10.784Z,79.78
2019-02-19T02:39:12.771Z,79.99
2019-02-19T02:44:14.839Z,79.79
2019-02-19T02:49:16.854Z,80.26
2019-02-19T02:54:18.872Z,80.12
2019-02-19T02:59:22.138Z,80.40
2019-02-19T03:04:25.385Z,80.42
2019-02-19T03:09:27.378Z,79.53
2019-02-19T03:14:29.407Z,80.03
2019-02-19T03:19:32.971Z,80.60
2019-02-19T03:24:35.021Z,80.66
2019-02-19T03:29:38.273Z,81.03
2019-02-19T03:34:42.604Z,80.88
2019-02-19T03:39:44.617Z,81.35
2019-02-19T03:44:46.634Z,81.60
2019-02-19T03:49:53.978Z,81.64
2019-02-19T03:54:56.046Z,81.70
2019-02-19T03:59:58.503Z,82.39
2019-02-19T04:05:00.516Z,82.16
2019-02-19T04:10:04.549Z,82.50
2019-02-19T04:15:07.779Z,82.52
2019-02-19T04:20:10.002Z,82.68
2019-02-19T04:25:12.042Z,82.58
2019-02-19T04:30:14.070Z,82.98
2019-02-19T04:35:18.760Z,83.00
2019-02-19T04:40:20.997Z,82.92
2019-02-19T04:45:22.977Z,82.80
2019-02-19T04:50:25.322Z,82.27
2019-02-19T04:55:27.312Z,83.04
2019-02-19T05:00:29.336Z,83.24
2019-02-19T05:05:31.576Z,82.93
2019-02-19T05:10:33.580Z,82.59
2019-02-19T05:15:35.590Z,82.40
2019-02-19T05:20:40.233Z,82.65
2019-02-19T05:25:42.234Z,82.17
2019-02-19T05:30:44.672Z,82.22
2019-02-19T05:35:46.690Z,82.05
2019-02-19T05:40:48.905Z,80.95
2019-02-19T05:45:52.292Z,81.84
2019-02-19T05:50:54.446Z,81.85
2019-02-19T05:55:56.512Z,82.12
2019-02-19T06:00:58.690Z,82.05
2019-02-19T06:06:01.919Z,82.34
2019-02-19T06:11:04.155Z,82.42
2019-02-19T06:16:06.197Z,82.90
2019-02-19T06:21:08.440Z,82.74
2019-02-19T06:26:10.859Z,82.94
2019-02-19T06:31:15.490Z,82.11
2019-02-19T06:36:21.944Z,82.13
2019-02-19T06:41:24.016Z,82.22
2019-02-19T06:46:26.051Z,82.25
2019-02-19T06:51:31.315Z,82.28
2019-02-19T06:56:43.461Z,82.23
2019-02-19T07:02:05.585Z,82.55
2019-02-19T07:07:07.592Z,82.52
2019-02-19T07:12:18.499Z,82.58
2019-02-19T07:17:22.891Z,82.85
2019-02-19T07:22:25.039Z,82.20
2019-02-19T07:27:27.200Z,82.53
2019-02-19T07:32:29.303Z,82.46
2019-02-19T07:37:37.565Z,82.32
2019-02-19T07:42:39.615Z,82.22
2019-02-19T07:47:43.919Z,81.83
2019-02-19T07:52:46.288Z,82.01
2019-02-19T07:57:48.276Z,82.01
2019-02-19T08:02:56.492Z,81.59
2019-02-19T08:08:00.564Z,81.70
2019-02-19T08:13:04.435Z,81.60
2019-02-19T08:18:06.462Z,80.79
2019-02-19T08:23:09.288Z,80.44
2019-02-19T08:28:16.613Z,80.10
2019-02-19T08:33:19.091Z,80.04
2019-02-19T08:38:21.147Z,79.84
2019-02-19T08:43:23.434Z,80.05
2019-02-19T08:48:26.535Z,78.77
2019-02-19T08:53:28.835Z,79.46
2019-02-19T08:58:30.844Z,79.51
2019-02-19T09:03:33.114Z,79.71
2019-02-19T09:08:35.133Z,78.76
2019-02-19T09:13:37.374Z,77.16
2019-02-19T09:18:39.376Z,77.50
2019-02-19T09:23:46.755Z,77.33
2019-02-19T09:28:48.935Z,76.33
2019-02-19T09:33:50.965Z,76.88
2019-02-19T09:38:53.205Z,75.79
2019-02-19T09:43:55.190Z,73.23
2019-02-19T09:48:57.199Z,73.36
2019-02-19T09:54:01.113Z,73.34
2019-02-19T09:59:05.215Z,73.73
2019-02-19T10:04:07.380Z,73.85
2019-02-19T10:09:09.386Z,71.73
2019-02-19T10:14:11.480Z,71.50
2019-02-19T10:19:13.571Z,71.67
2019-02-19T10:24:15.607Z,71.12
2019-02-19T10:29:18.005Z,71.20
2019-02-19T10:34:20.402Z,70.36
2019-02-19T10:39:22.455Z,67.06
2019-02-19T10:44:24.431Z,67.21
2019-02-19T10:49:26.444Z,67.48
2019-02-19T10:54:34.605Z,66.24
2019-02-19T10:59:36.901Z,66.24
2019-02-19T11:04:40.039Z,65.47
2019-02-19T11:09:42.139Z,65.02
2019-02-19T11:14:44.156Z,64.33
2019-02-19T11:19:46.184Z,64.54
2019-02-19T11:24:48.236Z,63.70
2019-02-19T11:29:50.342Z,65.66
2019-02-19T11:34:52.356Z,64.11
2019-02-19T11:39:57.090Z,63.59
2019-02-19T11:45:00.555Z,64.20
2019-02-19T11:50:05.269Z,64.72
2019-02-19T11:55:08.944Z,64.01
2019-02-19T12:00:14.161Z,62.91
2019-02-19T12:05:16.210Z,63.24
2019-02-19T12:10:18.238Z,63.24
2019-02-19T12:15:20.278Z,61.24
2019-02-19T12:20:22.342Z,61.24
2019-02-19T12:25:24.363Z,61.16
2019-02-19T12:30:26.363Z,60.74
2019-02-19T12:35:28.650Z,60.74
2019-02-19T12:40:36.742Z,60.19
2019-02-19T12:45:38.814Z,59.10
2019-02-19T12:50:43.881Z,61.05
2019-02-19T12:55:46.139Z,60.85
2019-02-19T13:00:48.285Z,59.65
2019-02-19T13:05:50.306Z,59.54
2019-02-19T13:10:52.339Z,59.41
2019-02-19T13:15:54.358Z,58.77
2019-02-19T13:20:56.659Z,60.40
2019-02-19T13:25:58.707Z,60.27
2019-02-19T13:31:00.906Z,60.40
2019-02-19T13:36:02.901Z,60.67
2019-02-19T13:41:05.269Z,60.79
2019-02-19T13:46:07.311Z,61.48
2019-02-19T13:51:09.912Z,61.48
2019-02-19T13:56:11.995Z,61.03
2019-02-19T14:01:14.076Z,61.60
2019-02-19T14:06:16.086Z,60.89
2019-02-19T14:11:20.492Z,61.75
2019-02-19T14:16:29.592Z,61.75
2019-02-19T14:21:57.640Z,61.39
2019-02-19T14:27:20.121Z,60.45
2019-02-19T14:32:45.270Z,61.64
2019-02-19T14:38:05.330Z,62.80
2019-02-19T14:43:32.989Z,61.79
2019-02-19T14:49:10.101Z,60.96
2019-02-19T14:54:37.255Z,60.44
2019-02-19T15:00:17.161Z,60.70
2019-02-19T15:05:41.650Z,61.05
2019-02-19T15:11:12.329Z,60.39
2019-02-19T15:16:30.049Z,58.92
2019-02-19T15:21:40.690Z,59.44
2019-02-19T15:27:09.215Z,60.41
2019-02-19T15:32:29.413Z,60.99
2019-02-19T15:37:49.619Z,61.19
2019-02-19T15:43:11.570Z,59.56
2019-02-19T15:48:51.964Z,59.78
2019-02-19T15:54:18.840Z,59.35
2019-02-19T15:59:38.811Z,60.26
2019-02-19T16:04:51.013Z,60.83
2019-02-19T16:10:12.720Z,61.45
2019-02-19T16:15:20.807Z,60.97
2019-02-19T16:20:38.120Z,62.66
2019-02-19T16:26:08.501Z,62.11
2019-02-19T16:31:33.414Z,62.77
2019-02-19T16:36:55.194Z,64.75
2019-02-19T16:42:12.265Z,66.01
2019-02-19T16:47:24.219Z,67.24
2019-02-19T16:52:31.190Z,68.04
2019-02-19T16:57:58.800Z,69.25
2019-02-19T17:03:26.645Z,69.74
2019-02-19T17:08:53.616Z,70.24
2019-02-19T17:14:32.689Z,69.99
2019-02-19T17:19:56.815Z,71.60
2019-02-19T17:25:17.571Z,71.29
2019-02-19T17:30:40.754Z,71.67
2019-02-19T17:36:10.297Z,72.09
2019-02-19T17:41:37.985Z,72.40
2019-02-19T17:47:16.212Z,72.14
2019-02-19T17:52:37.878Z,72.89
2019-02-19T17:57:59.496Z,73.05
2019-02-19T18:03:13.007Z,73.26
2019-02-19T18:08:33.833Z,73.17
2019-02-19T18:13:57.134Z,72.82
2019-02-19T18:18:59.191Z,72.29
2019-02-19T18:24:01.230Z,72.80
2019-02-19T18:29:04.287Z,73.23
2019-02-19T18:34:07.160Z,73.25
2019-02-19T18:39:09.276Z,73.52
2019-02-19T18:44:11.325Z,74.04
2019-02-19T18:49:16.573Z,73.59
2019-02-19T18:54:21.836Z,73.00
2019-02-19T18:59:25.587Z,73.83
2019-02-19T19:04:27.931Z,73.21
2019-02-19T19:09:29.933Z,73.42
2019-02-19T19:14:31.947Z,73.75
2019-02-19T19:19:34.079Z,74.33
2019-02-19T19:24:36.434Z,74.87
2019-02-19T19:29:42.791Z,75.23
2019-02-19T19:34:45.115Z,75.64
2019-02-19T19:39:47.473Z,76.00
2019-02-19T19:44:49.693Z,75.67
2019-02-19T19:49:51.858Z,75.85
2019-02-19T19:54:53.897Z,76.44
2019-02-19T20:00:00.324Z,77.07
2019-02-19T20:05:02.386Z,77.46
2019-02-19T20:10:05.891Z,77.51
2019-02-19T20:15:08.591Z,78.06
2019-02-19T20:20:10.620Z,78.13
2019-02-19T20:25:12.700Z,78.17
2019-02-19T20:30:19.781Z,79.22
2019-02-19T20:35:22.229Z,79.50
2019-02-19T20:40:24.544Z,79.92
2019-02-19T20:45:26.721Z,79.97
2019-02-19T20:50:28.904Z,80.24
2019-02-19T20:55:36.864Z,80.47
2019-02-19T21:00:40.515Z,80.19
2019-02-19T21:05:42.727Z,80.09
2019-02-19T21:10:44.773Z,80.26
2019-02-19T21:15:46.944Z,80.07
2019-02-19T21:20:50.844Z,79.36
2019-02-19T21:25:53.092Z,79.54
2019-02-19T21:30:55.349Z,79.42
2019-02-19T21:35:58.005Z,79.02
2019-02-19T21:41:00.299Z,78.92
2019-02-19T21:46:02.268Z,78.78
2019-02-19T21:51:07.438Z,78.49
2019-02-19T21:56:11.517Z,78.33
2019-02-19T22:01:18.726Z,78.35
2019-02-19T22:06:23.664Z,78.11
2019-02-19T22:11:26.841Z,78.22
2019-02-19T22:16:30.096Z,78.07
2019-02-19T22:22:03.436Z,77.58
2019-02-19T22:27:03.084Z,77.67
2019-02-19T22:32:06.315Z,77.41
2019-02-19T22:37:08.313Z,77.05
2019-02-19T22:42:10.404Z,76.81
2019-02-19T22:47:12.408Z,76.61
2019-02-19T22:52:15.719Z,76.36
2019-02-19T22:57:18.010Z,76.53
2019-02-19T23:02:22.730Z,76.24
2019-02-19T23:07:27.757Z,76.01
2019-02-19T23:12:29.965Z,75.53
2019-02-19T23:17:31.956Z,75.31
2019-02-19T23:22:34.276Z,75.43
2019-02-19T23:27:36.292Z,75.29
2019-02-19T23:32:38.707Z,75.10
2019-02-19T23:37:40.714Z,74.83
2019-02-19T23:42:42.749Z,74.72
2019-02-19T23:47:44.745Z,74.95
2019-02-19T23:52:47.033Z,75.04
2019-02-19T23:57:49.040Z,74.25
